Time;durP1;ratioP1;P1;durP2;ratioP2;P2;SDS_P1;SDS_P2;PMS_P1;PMS_P2;Temp;Humidity;BMP_temperature;BMP_pressure;BME280_temperature;BME280_humidity;BME280_pressure;Samples;Min_cycle;Max_cycle;Signal;HPM_P1;HPM_P2
2022/08/20 00:00:49;;;;;;;97.60;23.63;;;17.80;99.90;;;;;;5068826;28;20078;-60
2022/08/20 00:03:22;;;;;;;86.78;22.25;;;17.70;99.90;;;;;;5069289;28;20041;-60
2022/08/20 00:05:53;;;;;;;76.65;21.23;;;17.70;99.90;;;;;;5068664;28;20049;-60
2022/08/20 00:08:20;;;;;;;81.78;22.00;;;17.60;99.90;;;;;;5067281;28;20466;-60
2022/08/20 00:10:48;;;;;;;74.32;22.48;;;17.60;99.90;;;;;;5068853;28;20119;-60
2022/08/20 00:13:24;;;;;;;70.93;22.27;;;17.60;99.90;;;;;;5069226;28;20049;-60
2022/08/20 00:15:51;;;;;;;85.40;21.55;;;17.50;99.90;;;;;;5068574;28;20558;-60
2022/08/20 00:18:17;;;;;;;78.63;21.27;;;17.60;99.90;;;;;;5069221;28;20110;-60
2022/08/20 00:20:46;;;;;;;52.58;17.80;;;17.60;99.90;;;;;;5069242;28;20036;-60
2022/08/20 00:23:12;;;;;;;73.30;22.20;;;17.50;99.90;;;;;;5069078;28;20056;-60
2022/08/20 00:25:38;;;;;;;82.88;22.05;;;17.50;99.90;;;;;;5067963;28;20041;-60
2022/08/20 00:28:05;;;;;;;66.75;21.70;;;17.50;99.90;;;;;;5068040;28;20048;-60
2022/08/20 00:30:33;;;;;;;80.15;23.15;;;17.70;99.90;;;;;;5068288;28;20070;-60
2022/08/20 00:33:05;;;;;;;123.07;27.08;;;17.50;99.90;;;;;;5067959;28;20056;-60
2022/08/20 00:35:34;;;;;;;111.70;25.05;;;17.40;99.90;;;;;;5067326;28;20045;-60
2022/08/20 00:38:00;;;;;;;90.47;23.92;;;17.40;99.90;;;;;;5068093;28;20070;-60
2022/08/20 00:40:30;;;;;;;109.50;24.52;;;17.40;99.90;;;;;;5068612;28;20074;-60
2022/08/20 00:42:59;;;;;;;102.63;23.88;;;17.30;99.90;;;;;;5068897;28;20068;-59
2022/08/20 00:45:29;;;;;;;85.13;21.77;;;17.20;99.90;;;;;;5068640;28;20099;-60
2022/08/20 00:47:55;;;;;;;77.82;21.17;;;17.10;99.90;;;;;;5068648;28;20072;-59
2022/08/20 00:50:28;;;;;;;58.03;19.52;;;17.10;99.90;;;;;;5068924;28;20036;-59
2022/08/20 00:52:54;;;;;;;73.65;19.48;;;17.00;99.90;;;;;;5068187;28;20079;-60
2022/08/20 00:55:22;;;;;;;70.40;20.38;;;16.90;99.90;;;;;;5068284;28;20054;-60
2022/08/20 00:57:54;;;;;;;86.68;21.83;;;16.90;99.90;;;;;;5068188;28;20036;-60
2022/08/20 01:00:28;;;;;;;62.75;19.55;;;16.90;99.90;;;;;;5068329;28;20055;-60
2022/08/20 01:02:55;;;;;;;92.78;22.30;;;17.40;99.90;;;;;;5068301;28;20044;-59
2022/08/20 01:05:22;;;;;;;83.70;21.52;;;16.90;99.90;;;;;;5068266;28;20040;-59
2022/08/20 01:07:52;;;;;;;77.43;21.65;;;16.90;99.90;;;;;;5067819;28;20060;-60
2022/08/20 01:10:25;;;;;;;94.68;22.58;;;17.10;99.90;;;;;;5068153;28;20147;-59
2022/08/20 01:12:52;;;;;;;61.20;19.90;;;16.80;99.90;;;;;;5067751;28;20153;-60
2022/08/20 01:15:21;;;;;;;81.53;21.48;;;16.90;99.90;;;;;;5068017;28;20102;-60
2022/08/20 01:17:50;;;;;;;78.50;22.20;;;16.90;99.90;;;;;;5066273;28;20037;-59
2022/08/20 01:20:19;;;;;;;35.38;16.58;;;16.90;99.90;;;;;;5067892;28;20044;-60
2022/08/20 01:25:54;;;;;;;80.80;21.15;;;17.00;99.90;;;;;;5068012;28;20071;-60
2022/08/20 01:28:25;;;;;;;50.58;18.13;;;16.90;99.90;;;;;;5067941;28;20561;-59
2022/08/20 01:30:51;;;;;;;83.22;20.08;;;16.90;99.90;;;;;;5067909;28;20044;-60
2022/08/20 01:33:19;;;;;;;77.95;20.70;;;16.90;99.90;;;;;;5067849;28;20032;-60
2022/08/20 01:35:45;;;;;;;49.55;16.63;;;16.80;99.90;;;;;;5067127;28;20115;-60
2022/08/20 01:38:12;;;;;;;80.82;20.90;;;16.70;99.90;;;;;;5067833;28;20116;-60
2022/08/20 01:41:02;;;;;;;94.50;21.38;;;16.70;99.90;;;;;;5067699;28;20341;-60
2022/08/20 01:43:28;;;;;;;107.57;22.73;;;16.70;99.90;;;;;;5067921;28;20105;-60
2022/08/20 01:45:54;;;;;;;105.70;22.48;;;16.80;99.90;;;;;;5067657;28;20489;-59
2022/08/20 01:48:20;;;;;;;57.92;19.10;;;16.40;99.90;;;;;;5068022;28;20051;-60
2022/08/20 01:51:06;;;;;;;84.95;19.67;;;16.40;99.90;;;;;;5066932;28;20098;-60
2022/08/20 01:53:42;;;;;;;47.58;16.05;;;16.40;99.90;;;;;;5067934;28;20067;-60
2022/08/20 01:56:13;;;;;;;66.00;18.92;;;16.40;99.90;;;;;;5067661;28;20071;-60
2022/08/20 01:58:43;;;;;;;66.82;17.90;;;16.40;99.90;;;;;;5067623;28;20079;-60
2022/08/20 02:01:21;;;;;;;47.72;16.20;;;16.40;99.90;;;;;;5068101;28;20044;-60
2022/08/20 02:03:47;;;;;;;59.53;15.25;;;16.40;99.90;;;;;;5067282;28;20044;-60
2022/08/20 02:06:13;;;;;;;55.65;12.25;;;16.40;99.90;;;;;;5067258;28;20043;-60
2022/08/20 02:08:38;;;;;;;36.95;12.00;;;16.40;99.90;;;;;;5067216;28;20440;-60
2022/08/20 02:11:04;;;;;;;36.92;12.90;;;16.40;99.90;;;;;;5067050;28;20461;-60
2022/08/20 02:13:31;;;;;;;45.03;13.02;;;16.30;99.90;;;;;;5067098;28;20401;-60
2022/08/20 02:15:57;;;;;;;43.85;13.77;;;16.30;99.90;;;;;;5066948;28;20047;-60
2022/08/20 02:18:22;;;;;;;57.63;15.32;;;16.10;99.90;;;;;;5067137;28;20041;-60
2022/08/20 02:20:50;;;;;;;73.18;17.85;;;16.20;99.90;;;;;;5066929;28;20036;-60
2022/08/20 02:23:16;;;;;;;52.40;15.30;;;16.20;99.90;;;;;;5065488;28;20052;-60
2022/08/20 02:25:44;;;;;;;60.20;15.13;;;16.20;99.90;;;;;;5066971;28;20067;-60
2022/08/20 02:28:12;;;;;;;41.08;13.82;;;16.10;99.90;;;;;;5066581;28;20524;-60
2022/08/20 02:30:42;;;;;;;55.35;16.38;;;16.00;99.90;;;;;;5066903;28;20044;-60
2022/08/20 02:33:12;;;;;;;43.15;15.77;;;15.90;99.90;;;;;;5066621;28;20047;-60
2022/08/20 02:35:41;;;;;;;74.47;17.98;;;15.90;99.90;;;;;;5066873;28;20040;-60
2022/08/20 02:38:08;;;;;;;70.10;18.15;;;15.80;99.90;;;;;;5066462;28;20048;-60
2022/08/20 02:40:34;;;;;;;55.45;16.25;;;15.70;99.90;;;;;;5066765;28;20139;-60
2022/08/20 02:43:02;;;;;;;57.38;16.15;;;15.60;99.90;;;;;;5066627;28;20068;-60
2022/08/20 02:45:30;;;;;;;47.78;15.10;;;15.60;99.90;;;;;;5067099;28;20032;-60
2022/08/20 02:47:57;;;;;;;40.45;14.07;;;15.60;99.90;;;;;;5066456;28;20053;-60
2022/08/20 02:50:24;;;;;;;65.00;16.00;;;15.50;99.90;;;;;;5066969;28;20051;-60
2022/08/20 02:52:51;;;;;;;47.80;13.70;;;15.50;99.90;;;;;;5065885;28;20525;-60
2022/08/20 02:55:17;;;;;;;50.05;14.57;;;15.40;99.90;;;;;;5066448;28;20170;-60
2022/08/20 02:57:43;;;;;;;47.78;14.80;;;15.40;99.90;;;;;;5066495;28;20123;-60
2022/08/20 03:00:16;;;;;;;35.38;13.23;;;15.40;99.90;;;;;;5066731;28;20094;-60
2022/08/20 03:02:42;;;;;;;59.15;16.05;;;15.40;99.90;;;;;;5066276;28;20056;-60
2022/08/20 03:05:09;;;;;;;39.90;13.75;;;15.30;99.90;;;;;;5066124;28;20044;-60
2022/08/20 03:08:00;;;;;;;44.33;14.85;;;15.30;99.90;;;;;;5065773;28;20063;-60
2022/08/20 03:10:31;;;;;;;59.90;15.18;;;15.30;99.90;;;;;;5063902;28;20494;-60
2022/08/20 03:12:58;;;;;;;48.88;15.30;;;15.50;99.90;;;;;;5065947;28;20044;-60
2022/08/20 03:15:24;;;;;;;53.50;14.50;;;15.10;99.90;;;;;;5066026;28;20537;-60
2022/08/20 03:17:49;;;;;;;39.05;13.60;;;15.10;99.90;;;;;;5066564;28;20076;-60
2022/08/20 03:20:16;;;;;;;48.38;13.90;;;15.10;99.90;;;;;;5066581;28;20494;-60
2022/08/20 03:22:42;;;;;;;48.15;14.25;;;15.10;99.90;;;;;;5066908;28;20117;-60
2022/08/20 03:25:08;;;;;;;41.58;13.05;;;15.20;99.90;;;;;;5066050;28;20079;-60
2022/08/20 03:27:34;;;;;;;43.88;13.65;;;15.00;99.90;;;;;;5066191;28;20040;-60
2022/08/20 03:30:00;;;;;;;54.33;15.35;;;15.00;99.90;;;;;;5066091;28;20368;-60
2022/08/20 03:32:25;;;;;;;40.45;12.45;;;15.20;99.90;;;;;;5066199;28;20067;-60
2022/08/20 03:34:51;;;;;;;36.47;13.02;;;15.00;99.90;;;;;;5066108;28;20052;-60
2022/08/20 03:37:17;;;;;;;43.58;14.32;;;14.90;99.90;;;;;;5066032;28;20410;-60
2022/08/20 03:39:42;;;;;;;36.70;11.82;;;15.20;99.90;;;;;;5066332;28;20398;-60
2022/08/20 03:42:08;;;;;;;50.38;14.05;;;15.40;99.90;;;;;;5064460;28;20117;-60
2022/08/20 03:44:35;;;;;;;41.40;13.90;;;15.00;99.90;;;;;;5066100;28;20055;-60
2022/08/20 03:47:06;;;;;;;54.00;14.73;;;14.80;99.90;;;;;;5065940;28;20044;-60
2022/08/20 03:49:32;;;;;;;36.38;12.15;;;14.80;99.90;;;;;;5065851;28;20045;-60
2022/08/20 03:52:00;;;;;;;58.63;14.40;;;15.10;99.90;;;;;;5065353;28;20041;-60
2022/08/20 03:54:26;;;;;;;33.53;12.07;;;15.10;99.90;;;;;;5066009;28;20056;-60
2022/08/20 03:56:51;;;;;;;48.63;12.65;;;14.90;99.90;;;;;;5066238;28;20040;-60
2022/08/20 03:59:17;;;;;;;41.53;12.50;;;14.90;99.90;;;;;;5066085;28;20572;-60
2022/08/20 04:01:43;;;;;;;33.75;12.48;;;14.90;99.90;;;;;;5066097;28;20072;-60
2022/08/20 04:04:09;;;;;;;48.60;14.32;;;15.00;99.90;;;;;;5065653;28;20095;-60
2022/08/20 04:06:35;;;;;;;44.95;12.88;;;15.30;99.90;;;;;;5065640;28;20056;-60
2022/08/20 04:09:00;;;;;;;45.95;13.82;;;15.00;99.90;;;;;;5065524;28;20140;-60
2022/08/20 04:11:26;;;;;;;44.17;13.68;;;15.00;99.90;;;;;;5065878;28;20045;-60
2022/08/20 04:13:52;;;;;;;36.53;12.90;;;15.10;99.90;;;;;;5065689;28;20045;-60
2022/08/20 04:16:18;;;;;;;49.75;13.73;;;15.30;99.90;;;;;;5069005;28;20406;-59
2022/08/20 04:18:43;;;;;;;41.03;13.45;;;15.00;99.90;;;;;;5069536;28;20735;-60
2022/08/20 04:21:09;;;;;;;37.60;13.18;;;15.00;99.90;;;;;;5068932;28;20086;-60
2022/08/20 04:23:35;;;;;;;37.22;13.07;;;14.90;99.90;;;;;;5069799;28;20044;-59
2022/08/20 04:26:00;;;;;;;51.33;15.23;;;15.50;99.90;;;;;;5069003;28;20551;-60
2022/08/20 04:28:27;;;;;;;44.92;14.35;;;15.10;99.90;;;;;;5069462;28;20044;-60
2022/08/20 04:30:59;;;;;;;27.98;11.90;;;15.20;99.90;;;;;;5069271;28;20044;-60
2022/08/20 04:33:27;;;;;;;51.38;14.23;;;15.10;99.90;;;;;;5069305;28;20425;-60
2022/08/20 04:35:54;;;;;;;50.00;14.60;;;15.10;99.90;;;;;;5069133;28;20454;-60
2022/08/20 04:38:21;;;;;;;50.22;13.88;;;15.00;99.90;;;;;;5068513;28;20215;-59
2022/08/20 04:40:57;;;;;;;48.00;12.55;;;14.80;99.90;;;;;;5069200;28;20048;-60
2022/08/20 04:43:27;;;;;;;52.42;14.00;;;15.30;99.90;;;;;;5068425;28;20601;-60
2022/08/20 04:45:56;;;;;;;36.78;11.60;;;14.80;99.90;;;;;;5068396;28;20040;-59
2022/08/20 04:48:23;;;;;;;40.38;12.15;;;14.80;99.90;;;;;;5068193;28;20169;-59
2022/08/20 04:50:51;;;;;;;45.95;13.13;;;14.80;99.90;;;;;;5068669;28;20577;-60
2022/08/20 04:53:18;;;;;;;44.90;13.30;;;15.40;99.90;;;;;;5068890;28;20102;-59
2022/08/20 04:55:45;;;;;;;24.35;10.48;;;15.10;99.90;;;;;;5068867;28;20040;-59
2022/08/20 04:58:16;;;;;;;40.05;11.65;;;15.10;99.90;;;;;;5068336;28;20374;-59
2022/08/20 05:00:46;;;;;;;38.00;12.75;;;15.10;99.90;;;;;;5068698;28;20055;-60
2022/08/20 05:03:11;;;;;;;45.30;12.73;;;15.10;99.90;;;;;;5068258;28;20052;-59
2022/08/20 05:05:37;;;;;;;47.95;13.88;;;15.20;99.90;;;;;;5068100;28;20051;-60
2022/08/20 05:08:04;;;;;;;20.92;11.07;;;15.00;99.90;;;;;;5067661;28;20056;-60
2022/08/20 05:10:30;;;;;;;40.45;12.25;;;15.40;99.90;;;;;;5068047;28;20139;-59
2022/08/20 05:12:56;;;;;;;30.70;11.48;;;15.10;99.90;;;;;;5068131;28;20427;-59
2022/08/20 05:15:23;;;;;;;36.75;11.27;;;15.50;99.90;;;;;;5067981;28;20040;-60
2022/08/20 05:17:55;;;;;;;41.28;12.40;;;15.50;99.90;;;;;;5068001;28;20443;-59
2022/08/20 05:20:21;;;;;;;30.48;10.95;;;15.20;99.90;;;;;;5067990;28;20078;-59
2022/08/20 05:22:46;;;;;;;29.33;10.63;;;15.10;99.90;;;;;;5067965;28;20048;-59
2022/08/20 05:25:12;;;;;;;31.85;11.35;;;15.10;99.90;;;;;;5067961;28;20418;-59
2022/08/20 05:27:40;;;;;;;27.00;10.93;;;15.50;99.90;;;;;;5068095;28;20044;-59
2022/08/20 05:30:09;;;;;;;41.17;11.20;;;15.20;99.90;;;;;;5067757;28;20040;-59
2022/08/20 05:32:36;;;;;;;33.42;12.07;;;15.30;99.90;;;;;;5067826;28;20041;-59
2022/08/20 05:35:04;;;;;;;41.83;12.48;;;15.30;99.90;;;;;;5067940;28;20080;-59
2022/08/20 05:37:30;;;;;;;30.52;11.35;;;15.40;99.90;;;;;;5067834;28;20079;-59
2022/08/20 05:39:56;;;;;;;40.30;11.70;;;15.40;99.90;;;;;;5068144;28;20543;-59
2022/08/20 05:42:22;;;;;;;40.20;12.32;;;15.70;99.90;;;;;;5067703;28;20106;-59
2022/08/20 05:44:48;;;;;;;23.80;9.98;;;15.30;99.90;;;;;;5068038;28;20036;-59
2022/08/20 05:47:14;;;;;;;27.17;10.73;;;15.70;99.90;;;;;;5068044;28;20102;-59
2022/08/20 05:49:40;;;;;;;22.13;9.55;;;15.20;99.90;;;;;;5067828;28;20478;-59
2022/08/20 05:52:06;;;;;;;31.73;10.50;;;15.40;99.90;;;;;;5067736;28;20540;-59
2022/08/20 05:54:32;;;;;;;25.33;10.32;;;15.10;99.90;;;;;;5066036;28;20106;-59
2022/08/20 05:56:57;;;;;;;35.90;10.38;;;15.10;99.90;;;;;;5067359;28;20045;-59
2022/08/20 05:59:24;;;;;;;32.70;10.23;;;15.60;99.90;;;;;;5065217;28;20036;-59
2022/08/20 06:01:51;;;;;;;29.20;9.40;;;15.50;99.90;;;;;;5066736;28;20044;-59
2022/08/20 06:04:27;;;;;;;24.83;9.52;;;15.40;99.90;;;;;;5067337;28;20142;-59
2022/08/20 06:06:57;;;;;;;13.20;6.50;;;16.00;99.90;;;;;;5066656;28;20506;-59
2022/08/20 06:09:24;;;;;;;17.88;7.53;;;15.60;99.90;;;;;;5066644;28;20049;-59
2022/08/20 06:11:50;;;;;;;16.33;7.53;;;15.90;99.90;;;;;;5067304;28;20053;-59
2022/08/20 06:14:16;;;;;;;16.60;8.00;;;16.40;99.90;;;;;;5066905;28;20040;-59
2022/08/20 06:16:42;;;;;;;11.35;7.28;;;16.50;99.90;;;;;;5067239;28;20044;-59
2022/08/20 06:19:09;;;;;;;16.23;7.35;;;16.60;99.90;;;;;;5067399;28;20044;-59
2022/08/20 06:21:34;;;;;;;11.70;6.20;;;16.60;99.90;;;;;;5067103;28;20116;-59
2022/08/20 06:24:00;;;;;;;23.75;6.78;;;16.40;99.90;;;;;;5066958;28;20139;-58
2022/08/20 06:26:26;;;;;;;20.10;6.45;;;16.60;99.90;;;;;;5066820;28;20040;-59
2022/08/20 06:28:52;;;;;;;19.33;6.85;;;16.50;99.90;;;;;;5066333;28;20045;-59
2022/08/20 06:31:18;;;;;;;9.82;5.82;;;16.50;99.90;;;;;;5066654;28;20040;-59
2022/08/20 06:33:44;;;;;;;10.23;4.93;;;16.20;99.90;;;;;;5066546;28;20539;-59
2022/08/20 06:36:09;;;;;;;15.23;6.85;;;16.80;99.90;;;;;;5066607;28;20050;-59
2022/08/20 06:38:35;;;;;;;9.48;5.85;;;17.10;99.90;;;;;;5066279;28;20044;-59
2022/08/20 06:41:01;;;;;;;14.55;6.78;;;17.50;99.90;;;;;;5065488;28;20044;-58
2022/08/20 06:43:27;;;;;;;14.10;5.95;;;18.60;99.90;;;;;;5066840;28;20048;-58
2022/08/20 06:45:56;;;;;;;13.93;5.38;;;18.70;99.90;;;;;;5066660;28;20044;-59
2022/08/20 06:48:22;;;;;;;10.55;5.07;;;18.60;99.90;;;;;;5066647;28;20976;-59
2022/08/20 06:50:48;;;;;;;14.63;4.63;;;18.60;99.90;;;;;;5067271;28;20052;-59
2022/08/20 06:53:17;;;;;;;9.45;3.58;;;18.60;99.90;;;;;;5066826;28;20098;-59
2022/08/20 06:55:48;;;;;;;13.40;4.03;;;18.60;99.90;;;;;;5066877;28;20044;-59
2022/08/20 06:58:14;;;;;;;12.13;3.97;;;18.60;99.90;;;;;;5066308;28;20508;-59
2022/08/20 07:00:42;;;;;;;8.30;2.90;;;20.40;99.90;;;;;;5066981;28;20059;-58
2022/08/20 07:03:08;;;;;;;13.70;2.78;;;20.30;99.90;;;;;;5066669;28;20044;-58
2022/08/20 07:05:41;;;;;;;6.03;1.98;;;20.00;99.90;;;;;;5066437;28;20052;-58
2022/08/20 07:08:08;;;;;;;8.32;2.03;;;20.50;99.90;;;;;;5066342;28;20110;-59
2022/08/20 07:10:34;;;;;;;9.57;2.13;;;20.90;99.90;;;;;;5066357;28;20525;-59
2022/08/20 07:12:59;;;;;;;9.32;1.63;;;20.70;99.90;;;;;;5066557;28;20147;-58
2022/08/20 07:15:26;;;;;;;9.93;1.63;;;20.60;99.90;;;;;;5066080;28;20498;-58
2022/08/20 07:17:58;;;;;;;10.73;2.05;;;20.40;99.90;;;;;;5066464;28;20117;-59
2022/08/20 07:20:23;;;;;;;;;;;20.30;99.90;;;;;;5067199;28;20114;-59
2022/08/20 07:22:49;;;;;;;5.55;1.40;;;20.20;99.90;;;;;;5066606;28;19924;-58
2022/08/20 07:25:18;;;;;;;8.52;1.25;;;20.00;99.90;;;;;;5066154;28;20044;-59
2022/08/20 07:27:44;;;;;;;7.15;1.92;;;19.80;99.90;;;;;;5066446;28;20048;-58
2022/08/20 07:32:58;;;;;;;13.48;1.80;;;19.70;99.90;;;;;;5065796;28;20055;-58
2022/08/20 07:35:24;;;;;;;5.65;1.35;;;20.00;99.90;;;;;;5065355;28;20036;-58
2022/08/20 07:37:50;;;;;;;6.50;0.93;;;20.20;99.90;;;;;;5066186;28;20497;-58
2022/08/20 07:40:19;;;;;;;7.00;0.90;;;20.50;99.90;;;;;;5065996;28;20046;-58
2022/08/20 07:42:46;;;;;;;6.45;0.80;;;20.50;99.90;;;;;;5066102;28;20043;-58
2022/08/20 07:45:14;;;;;;;7.35;0.70;;;20.60;99.90;;;;;;5066085;28;20585;-58
2022/08/20 07:47:41;;;;;;;9.70;0.80;;;20.60;99.90;;;;;;5066374;28;20044;-58
2022/08/20 07:50:09;;;;;;;6.03;0.77;;;20.70;99.90;;;;;;5068054;28;20123;-58
2022/08/20 07:52:35;;;;;;;5.15;0.80;;;20.90;99.90;;;;;;5069911;28;20032;-58
2022/08/20 07:55:03;;;;;;;6.45;1.40;;;21.00;99.90;;;;;;5069711;28;20044;-58
2022/08/20 07:57:29;;;;;;;8.23;1.25;;;21.00;99.90;;;;;;5069627;28;20048;-60
2022/08/20 07:59:57;;;;;;;7.43;0.60;;;21.00;99.90;;;;;;5069751;28;20095;-58
2022/08/20 08:02:25;;;;;;;5.72;0.95;;;20.90;99.90;;;;;;5070432;28;20051;-58
2022/08/20 08:04:51;;;;;;;8.50;1.08;;;20.90;99.90;;;;;;5070318;28;20048;-58
2022/08/20 08:07:17;;;;;;;5.57;0.80;;;20.90;99.90;;;;;;5069747;28;20067;-58
2022/08/20 08:09:45;;;;;;;10.52;1.42;;;21.20;99.90;;;;;;5068252;28;20285;-56
2022/08/20 08:12:12;;;;;;;6.10;0.57;;;21.30;99.90;;;;;;5064741;28;20578;-55
2022/08/20 08:14:40;;;;;;;6.18;0.73;;;21.60;99.90;;;;;;5065448;28;20036;-57
2022/08/20 08:17:06;;;;;;;7.78;0.63;;;22.00;99.90;;;;;;5067902;28;20099;-57
2022/08/20 08:19:41;;;;;;;4.57;0.35;;;22.30;99.90;;;;;;5068071;28;20044;-57
2022/08/20 08:22:11;;;;;;;5.20;0.50;;;22.80;99.90;;;;;;5068311;28;20121;-55
2022/08/20 08:24:42;;;;;;;7.50;0.70;;;23.80;99.90;;;;;;5068586;28;20048;-57
2022/08/20 08:27:08;;;;;;;4.23;0.63;;;26.30;99.90;;;;;;5068256;28;20036;-59
2022/08/20 08:29:34;;;;;;;3.05;0.40;;;27.80;99.90;;;;;;5068549;28;20847;-59
2022/08/20 08:32:02;;;;;;;3.45;0.50;;;28.20;99.90;;;;;;5068226;28;20708;-59
2022/08/20 08:34:30;;;;;;;3.83;0.93;;;29.40;99.20;;;;;;5067825;28;20045;-59
2022/08/20 08:36:56;;;;;;;5.68;0.30;;;30.60;95.80;;;;;;5068216;28;20158;-58
2022/08/20 08:39:22;;;;;;;3.90;0.55;;;31.80;93.10;;;;;;5067884;28;20529;-50
2022/08/20 08:41:50;;;;;;;3.53;0.70;;;32.70;90.00;;;;;;5067533;28;20037;-49
2022/08/20 08:44:26;;;;;;;2.40;0.22;;;33.40;84.70;;;;;;5068381;28;20044;-56
2022/08/20 08:47:12;;;;;;;4.57;0.38;;;34.00;79.00;;;;;;5067923;28;20148;-57
2022/08/20 08:49:38;;;;;;;3.75;0.40;;;34.80;73.40;;;;;;5067471;28;20539;-58
2022/08/20 08:52:21;;;;;;;2.08;0.20;;;35.60;69.80;;;;;;5068170;28;20093;-55
2022/08/20 08:54:50;;;;;;;6.18;0.40;;;36.50;68.30;;;;;;5068937;28;20040;-54
2022/08/20 08:57:17;;;;;;;5.95;0.60;;;37.20;65.70;;;;;;5067841;28;20508;-53
2022/08/20 08:59:47;;;;;;;5.65;0.30;;;37.80;64.70;;;;;;5069200;28;20375;-53
2022/08/20 09:02:20;;;;;;;5.05;0.35;;;38.20;62.20;;;;;;5069163;28;20047;-54
2022/08/20 09:04:46;;;;;;;4.18;0.25;;;38.60;60.80;;;;;;5068697;28;20044;-53
2022/08/20 09:07:15;;;;;;;1.55;0.30;;;39.10;57.60;;;;;;5068701;28;20060;-54
2022/08/20 09:09:45;;;;;;;3.35;0.40;;;39.50;57.50;;;;;;5069170;28;20052;-54
2022/08/20 09:12:17;;;;;;;1.02;0.17;;;39.70;55.00;;;;;;5069846;28;20041;-54
2022/08/20 09:14:46;;;;;;;2.83;0.30;;;40.20;56.40;;;;;;5069388;28;20043;-53
2022/08/20 09:17:16;;;;;;;4.25;0.38;;;40.30;55.00;;;;;;5068980;28;20088;-54
2022/08/20 09:19:42;;;;;;;2.05;0.28;;;40.30;54.60;;;;;;5067635;28;20059;-53
2022/08/20 09:22:09;;;;;;;3.35;0.20;;;40.20;54.20;;;;;;5068882;28;20391;-54
2022/08/20 09:24:35;;;;;;;4.03;0.20;;;40.70;52.90;;;;;;5068691;28;20040;-54
2022/08/20 09:27:01;;;;;;;4.70;0.30;;;40.90;52.80;;;;;;5067769;28;20032;-54
2022/08/20 09:29:28;;;;;;;2.85;0.40;;;40.90;53.10;;;;;;5069153;28;20505;-53
2022/08/20 09:32:18;;;;;;;2.90;0.52;;;41.00;65.40;;;;;;5069432;28;20368;-52
2022/08/20 09:34:46;;;;;;;3.67;0.30;;;41.10;69.80;;;;;;5069130;28;20118;-53
2022/08/20 09:37:12;;;;;;;2.70;0.30;;;40.80;50.80;;;;;;5068634;28;20478;-54
2022/08/20 09:39:38;;;;;;;2.03;0.20;;;40.70;50.50;;;;;;5068053;28;20398;-54
2022/08/20 09:42:31;;;;;;;3.42;0.40;;;40.70;50.30;;;;;;5068165;28;20044;-54
2022/08/20 09:44:58;;;;;;;3.25;0.28;;;40.20;49.10;;;;;;5066983;28;20071;-52
2022/08/20 09:47:24;;;;;;;2.70;0.20;;;39.50;49.70;;;;;;5068930;28;20119;-54
2022/08/20 09:49:50;;;;;;;2.22;0.20;;;39.00;50.20;;;;;;5068494;28;20535;-53
2022/08/20 09:52:25;;;;;;;6.47;0.40;;;38.60;51.00;;;;;;5068828;28;20036;-53
2022/08/20 09:54:56;;;;;;;1.90;0.20;;;38.10;50.50;;;;;;5068454;28;20040;-53
2022/08/20 09:57:23;;;;;;;2.70;0.17;;;38.10;50.60;;;;;;5068724;28;20462;-53
2022/08/20 09:59:56;;;;;;;3.15;0.47;;;37.80;51.50;;;;;;5068249;28;20124;-52
2022/08/20 10:02:23;;;;;;;3.03;0.28;;;37.40;49.10;;;;;;5068216;28;20045;-53
2022/08/20 10:04:48;;;;;;;3.67;0.60;;;37.40;51.70;;;;;;5068130;28;20379;-52
2022/08/20 10:07:14;;;;;;;1.38;0.20;;;37.30;51.80;;;;;;5067691;28;20057;-53
2022/08/20 10:09:40;;;;;;;2.00;0.30;;;37.00;52.80;;;;;;5067744;28;20045;-51
2022/08/20 10:12:06;;;;;;;2.13;0.28;;;36.70;50.60;;;;;;5067112;28;20036;-52
2022/08/20 10:14:31;;;;;;;3.08;0.20;;;36.60;50.70;;;;;;5068273;28;20203;-52
2022/08/20 10:16:59;;;;;;;2.33;0.20;;;36.40;52.80;;;;;;5067512;28;20604;-53
2022/08/20 10:19:25;;;;;;;4.47;0.40;;;35.80;53.50;;;;;;5067872;28;20075;-52
2022/08/20 10:21:53;;;;;;;1.95;0.20;;;35.80;53.70;;;;;;5067473;28;20040;-53
2022/08/20 10:24:19;;;;;;;2.75;0.55;;;35.80;54.00;;;;;;5067812;28;20048;-53
2022/08/20 10:26:46;;;;;;;3.50;0.20;;;35.90;51.70;;;;;;5067552;28;20041;-52
2022/08/20 10:29:12;;;;;;;1.67;0.30;;;35.60;53.00;;;;;;5067781;28;20055;-51
2022/08/20 10:31:38;;;;;;;4.55;0.30;;;34.90;53.00;;;;;;5067906;28;20048;-51
2022/08/20 10:34:04;;;;;;;3.60;0.40;;;34.10;62.80;;;;;;5067652;28;20044;-53
2022/08/20 10:36:30;;;;;;;2.75;0.40;;;33.80;54.90;;;;;;5067774;28;20044;-53
2022/08/20 10:38:55;;;;;;;5.22;0.30;;;33.70;55.20;;;;;;5066938;28;20036;-52
2022/08/20 10:41:21;;;;;;;2.92;0.30;;;33.10;53.30;;;;;;5066603;28;20048;-52
2022/08/20 10:43:47;;;;;;;3.22;0.50;;;32.80;52.60;;;;;;5066903;28;20169;-53
2022/08/20 10:46:13;;;;;;;5.50;0.40;;;32.50;53.90;;;;;;5065885;28;20044;-52
2022/08/20 10:48:39;;;;;;;3.67;0.30;;;;;;;;;;5067006;28;20041;-50
2022/08/20 10:51:05;;;;;;;3.42;0.32;;;32.50;63.00;;;;;;5065712;28;20098;-52
2022/08/20 10:53:31;;;;;;;5.63;0.47;;;32.20;55.70;;;;;;5066729;28;20036;-50
2022/08/20 10:55:57;;;;;;;3.17;0.20;;;31.40;57.90;;;;;;5066012;28;20040;-52
2022/08/20 10:58:24;;;;;;;3.22;0.25;;;;;;;;;;5066996;28;20072;-51
2022/08/20 11:00:50;;;;;;;4.82;0.50;;;29.80;75.40;;;;;;5065967;28;20119;-51
2022/08/20 11:03:16;;;;;;;2.28;0.30;;;29.20;59.00;;;;;;5065646;28;20052;-52
2022/08/20 11:05:42;;;;;;;2.30;0.30;;;28.50;60.10;;;;;;5065758;28;20086;-49
2022/08/20 11:08:08;;;;;;;3.00;0.50;;;27.90;62.30;;;;;;5066027;28;20048;-52
2022/08/20 11:10:34;;;;;;;4.03;0.22;;;27.50;64.20;;;;;;5066345;28;20045;-52
2022/08/20 11:13:02;;;;;;;5.63;0.65;;;27.00;65.10;;;;;;5066240;28;20036;-51
2022/08/20 11:15:28;;;;;;;3.30;0.40;;;26.70;66.50;;;;;;5065764;28;20089;-47
2022/08/20 11:17:55;;;;;;;4.10;0.30;;;26.30;65.60;;;;;;5065948;28;20115;-51
2022/08/20 11:20:23;;;;;;;2.58;0.20;;;26.20;67.80;;;;;;5065796;28;20569;-48
2022/08/20 11:22:49;;;;;;;5.43;0.60;;;26.10;67.20;;;;;;5066250;28;20056;-49
2022/08/20 11:25:15;;;;;;;3.97;0.47;;;26.00;68.10;;;;;;5070170;28;20041;-51
2022/08/20 11:27:44;;;;;;;6.63;0.40;;;26.10;69.30;;;;;;5069416;28;20048;-52
2022/08/20 11:30:13;;;;;;;3.85;0.30;;;26.10;69.00;;;;;;5069894;28;20412;-50
2022/08/20 11:32:39;;;;;;;5.43;0.40;;;26.10;68.00;;;;;;5069849;28;20036;-52
2022/08/20 11:35:05;;;;;;;5.95;0.30;;;26.20;69.40;;;;;;5069726;28;20113;-50
2022/08/20 11:37:32;;;;;;;3.10;0.30;;;26.40;68.20;;;;;;5069329;28;20131;-51
2022/08/20 11:39:57;;;;;;;4.30;0.43;;;26.60;68.70;;;;;;5069383;28;20081;-49
2022/08/20 11:42:23;;;;;;;4.05;0.52;;;26.80;68.00;;;;;;5069774;28;20391;-51
2022/08/20 11:44:49;;;;;;;6.10;0.50;;;26.90;69.60;;;;;;5069777;28;20048;-52
2022/08/20 11:47:27;;;;;;;5.45;0.60;;;26.70;69.70;;;;;;5069440;28;20063;-48
2022/08/20 11:50:02;;;;;;;5.63;1.38;;;26.50;69.50;;;;;;5069974;28;20047;-51
2022/08/20 11:52:29;;;;;;;6.65;0.65;;;26.40;70.90;;;;;;5069950;28;20490;-49
2022/08/20 11:54:55;;;;;;;3.13;0.47;;;26.20;71.70;;;;;;5069975;28;20082;-48
2022/08/20 11:57:22;;;;;;;5.82;0.47;;;26.10;71.80;;;;;;5067851;28;20059;-48
2022/08/20 11:59:51;;;;;;;3.97;0.63;;;25.80;72.20;;;;;;5069575;28;20045;-51
2022/08/20 12:02:17;;;;;;;4.60;0.60;;;25.50;71.80;;;;;;5069242;28;20051;-52
2022/08/20 12:04:43;;;;;;;8.82;0.60;;;25.20;73.30;;;;;;5069857;28;20075;-48
2022/08/20 12:07:14;;;;;;;3.20;0.20;;;24.90;73.50;;;;;;5067944;28;20560;-50
2022/08/20 12:09:41;;;;;;;3.58;0.93;;;24.70;74.70;;;;;;5069536;28;20051;-52
2022/08/20 12:12:07;;;;;;;2.80;0.40;;;24.60;75.50;;;;;;5068645;28;20153;-49
2022/08/20 12:14:33;;;;;;;5.03;0.50;;;24.60;76.00;;;;;;5069617;28;20044;-52
2022/08/20 12:17:11;;;;;;;3.08;0.43;;;24.90;75.30;;;;;;5068751;28;20059;-51
2022/08/20 12:19:41;;;;;;;4.68;0.68;;;25.10;74.90;;;;;;5068385;28;20044;-52
2022/08/20 12:22:07;;;;;;;4.35;0.60;;;25.10;72.70;;;;;;5068401;28;20148;-50
2022/08/20 12:24:33;;;;;;;5.10;0.93;;;25.30;73.20;;;;;;5068461;28;20052;-48
2022/08/20 12:27:26;;;;;;;5.28;0.52;;;25.50;74.10;;;;;;5068837;28;20374;-51
2022/08/20 12:29:54;;;;;;;6.88;1.65;;;25.50;67.10;;;;;;5069030;28;20040;-51
2022/08/20 12:32:24;;;;;;;3.83;0.80;;;25.40;71.20;;;;;;5068662;28;20075;-50
2022/08/20 12:34:50;;;;;;;3.67;0.30;;;25.40;71.00;;;;;;5068199;28;20040;-52
2022/08/20 12:37:19;;;;;;;3.30;0.63;;;25.30;70.30;;;;;;5068391;28;20036;-48
2022/08/20 12:39:48;;;;;;;2.40;0.30;;;25.20;71.30;;;;;;5068695;28;20572;-51
2022/08/20 12:42:14;;;;;;;4.60;0.40;;;25.10;72.80;;;;;;5068059;28;20534;-52
2022/08/20 12:44:40;;;;;;;3.60;0.70;;;24.90;74.40;;;;;;5067915;28;20123;-49
2022/08/20 12:47:22;;;;;;;2.72;0.45;;;25.00;73.40;;;;;;5067915;28;20123;-52